sensor_id;sensor_type;location;lat;lon;timestamp;P1;durP1;ratioP1;P2;durP2;ratioP2
38615;SDS011;24370;51.986;4.666;2022-07-12T00:00:34;4.40;;;3.47;;
38615;SDS011;24370;51.986;4.666;2022-07-12T00:02:59;3.42;;;3.10;;
38615;SDS011;24370;51.986;4.666;2022-07-12T00:05:24;5.35;;;4.20;;
38615;SDS011;24370;51.986;4.666;2022-07-12T00:07:50;4.47;;;3.53;;
38615;SDS011;24370;51.986;4.666;2022-07-12T00:10:15;4.03;;;3.50;;
38615;SDS011;24370;51.986;4.666;2022-07-12T00:12:41;4.30;;;3.30;;
38615;SDS011;24370;51.986;4.666;2022-07-12T00:15:06;3.92;;;3.60;;
38615;SDS011;24370;51.986;4.666;2022-07-12T00:17:32;3.78;;;3.40;;
38615;SDS011;24370;51.986;4.666;2022-07-12T00:19:58;5.63;;;4.00;;
38615;SDS011;24370;51.986;4.666;2022-07-12T00:22:23;5.22;;;3.85;;
38615;SDS011;24370;51.986;4.666;2022-07-12T00:24:49;5.03;;;4.00;;
38615;SDS011;24370;51.986;4.666;2022-07-12T00:27:15;4.38;;;3.97;;
38615;SDS011;24370;51.986;4.666;2022-07-12T00:29:40;7.72;;;4.00;;
38615;SDS011;24370;51.986;4.666;2022-07-12T00:32:06;3.75;;;3.33;;
38615;SDS011;24370;51.986;4.666;2022-07-12T00:34:32;5.40;;;4.18;;
38615;SDS011;24370;51.986;4.666;2022-07-12T00:36:58;4.30;;;3.75;;
38615;SDS011;24370;51.986;4.666;2022-07-12T00:39:23;4.38;;;3.97;;
38615;SDS011;24370;51.986;4.666;2022-07-12T00:41:49;4.13;;;3.72;;
38615;SDS011;24370;51.986;4.666;2022-07-12T00:44:15;3.92;;;3.58;;
38615;SDS011;24370;51.986;4.666;2022-07-12T00:46:40;4.40;;;4.00;;
38615;SDS011;24370;51.986;4.666;2022-07-12T00:49:06;4.10;;;3.65;;
38615;SDS011;24370;51.986;4.666;2022-07-12T00:51:31;5.03;;;3.78;;
38615;SDS011;24370;51.986;4.666;2022-07-12T00:53:58;4.30;;;3.78;;
38615;SDS011;24370;51.986;4.666;2022-07-12T00:56:24;6.07;;;4.45;;
38615;SDS011;24370;51.986;4.666;2022-07-12T00:58:50;4.20;;;3.80;;
38615;SDS011;24370;51.986;4.666;2022-07-12T01:01:16;5.82;;;4.55;;
38615;SDS011;24370;51.986;4.666;2022-07-12T01:03:41;5.32;;;3.92;;
38615;SDS011;24370;51.986;4.666;2022-07-12T01:06:07;4.75;;;4.15;;
38615;SDS011;24370;51.986;4.666;2022-07-12T01:08:33;4.50;;;4.10;;
38615;SDS011;24370;51.986;4.666;2022-07-12T01:10:58;4.88;;;4.45;;
38615;SDS011;24370;51.986;4.666;2022-07-12T01:13:25;5.63;;;4.07;;
38615;SDS011;24370;51.986;4.666;2022-07-12T01:15:50;7.88;;;4.32;;
38615;SDS011;24370;51.986;4.666;2022-07-12T01:18:17;5.32;;;4.25;;
38615;SDS011;24370;51.986;4.666;2022-07-12T01:20:44;5.00;;;4.45;;
38615;SDS011;24370;51.986;4.666;2022-07-12T01:23:11;4.47;;;4.07;;
38615;SDS011;24370;51.986;4.666;2022-07-12T01:25:39;4.30;;;3.90;;
38615;SDS011;24370;51.986;4.666;2022-07-12T01:28:05;5.03;;;4.53;;
38615;SDS011;24370;51.986;4.666;2022-07-12T01:30:30;4.72;;;4.25;;
38615;SDS011;24370;51.986;4.666;2022-07-12T01:32:56;4.85;;;4.35;;
38615;SDS011;24370;51.986;4.666;2022-07-12T01:35:24;5.47;;;4.82;;
38615;SDS011;24370;51.986;4.666;2022-07-12T01:37:49;9.05;;;4.40;;
38615;SDS011;24370;51.986;4.666;2022-07-12T01:40:15;4.85;;;4.28;;
38615;SDS011;24370;51.986;4.666;2022-07-12T01:42:41;5.65;;;4.80;;
38615;SDS011;24370;51.986;4.666;2022-07-12T01:45:09;4.65;;;4.15;;
38615;SDS011;24370;51.986;4.666;2022-07-12T01:47:35;6.78;;;4.40;;
38615;SDS011;24370;51.986;4.666;2022-07-12T01:50:02;4.97;;;4.47;;
38615;SDS011;24370;51.986;4.666;2022-07-12T01:52:29;4.80;;;4.32;;
38615;SDS011;24370;51.986;4.666;2022-07-12T01:54:55;5.28;;;4.57;;
38615;SDS011;24370;51.986;4.666;2022-07-12T01:57:22;4.90;;;4.40;;
38615;SDS011;24370;51.986;4.666;2022-07-12T01:59:48;4.65;;;4.25;;
38615;SDS011;24370;51.986;4.666;2022-07-12T02:02:14;4.80;;;4.28;;
38615;SDS011;24370;51.986;4.666;2022-07-12T02:04:39;6.15;;;4.60;;
38615;SDS011;24370;51.986;4.666;2022-07-12T02:07:04;4.85;;;4.13;;
38615;SDS011;24370;51.986;4.666;2022-07-12T02:09:30;5.18;;;4.68;;
38615;SDS011;24370;51.986;4.666;2022-07-12T02:11:56;6.43;;;4.40;;
38615;SDS011;24370;51.986;4.666;2022-07-12T02:14:22;5.32;;;4.78;;
38615;SDS011;24370;51.986;4.666;2022-07-12T02:16:48;4.55;;;4.13;;
38615;SDS011;24370;51.986;4.666;2022-07-12T02:19:13;5.50;;;5.00;;
38615;SDS011;24370;51.986;4.666;2022-07-12T02:21:39;5.72;;;4.72;;
38615;SDS011;24370;51.986;4.666;2022-07-12T02:24:06;6.93;;;4.97;;
38615;SDS011;24370;51.986;4.666;2022-07-12T02:26:35;5.32;;;4.80;;
38615;SDS011;24370;51.986;4.666;2022-07-12T02:29:01;7.03;;;5.03;;
38615;SDS011;24370;51.986;4.666;2022-07-12T02:31:28;7.63;;;5.03;;
38615;SDS011;24370;51.986;4.666;2022-07-12T02:33:53;5.95;;;5.35;;
38615;SDS011;24370;51.986;4.666;2022-07-12T02:36:19;5.85;;;5.10;;
38615;SDS011;24370;51.986;4.666;2022-07-12T02:38:45;5.57;;;5.07;;
38615;SDS011;24370;51.986;4.666;2022-07-12T02:41:10;6.18;;;5.00;;
38615;SDS011;24370;51.986;4.666;2022-07-12T02:43:35;10.70;;;5.82;;
38615;SDS011;24370;51.986;4.666;2022-07-12T02:46:08;8.07;;;6.03;;
38615;SDS011;24370;51.986;4.666;2022-07-12T02:48:38;8.35;;;5.70;;
38615;SDS011;24370;51.986;4.666;2022-07-12T02:51:04;6.32;;;5.63;;
38615;SDS011;24370;51.986;4.666;2022-07-12T02:53:31;7.15;;;5.45;;
38615;SDS011;24370;51.986;4.666;2022-07-12T02:55:58;7.07;;;5.60;;
38615;SDS011;24370;51.986;4.666;2022-07-12T02:58:23;6.85;;;5.85;;
38615;SDS011;24370;51.986;4.666;2022-07-12T03:00:48;7.03;;;5.97;;
38615;SDS011;24370;51.986;4.666;2022-07-12T03:03:14;6.13;;;5.53;;
38615;SDS011;24370;51.986;4.666;2022-07-12T03:05:40;6.90;;;5.88;;
38615;SDS011;24370;51.986;4.666;2022-07-12T03:08:07;6.72;;;5.93;;
38615;SDS011;24370;51.986;4.666;2022-07-12T03:10:34;6.47;;;5.70;;
38615;SDS011;24370;51.986;4.666;2022-07-12T03:12:59;6.50;;;5.35;;
38615;SDS011;24370;51.986;4.666;2022-07-12T03:15:25;8.05;;;6.00;;
38615;SDS011;24370;51.986;4.666;2022-07-12T03:17:51;7.78;;;6.03;;
38615;SDS011;24370;51.986;4.666;2022-07-12T03:20:16;5.13;;;4.63;;
38615;SDS011;24370;51.986;4.666;2022-07-12T03:22:42;7.85;;;6.57;;
38615;SDS011;24370;51.986;4.666;2022-07-12T03:25:13;7.43;;;5.70;;
38615;SDS011;24370;51.986;4.666;2022-07-12T03:27:40;7.00;;;5.32;;
38615;SDS011;24370;51.986;4.666;2022-07-12T03:30:06;7.32;;;5.50;;
38615;SDS011;24370;51.986;4.666;2022-07-12T03:32:33;6.95;;;5.53;;
38615;SDS011;24370;51.986;4.666;2022-07-12T03:34:58;6.22;;;5.22;;
38615;SDS011;24370;51.986;4.666;2022-07-12T03:37:24;6.78;;;5.65;;
38615;SDS011;24370;51.986;4.666;2022-07-12T03:39:49;6.30;;;5.32;;
38615;SDS011;24370;51.986;4.666;2022-07-12T03:42:15;6.70;;;5.78;;
38615;SDS011;24370;51.986;4.666;2022-07-12T03:44:40;6.40;;;5.25;;
38615;SDS011;24370;51.986;4.666;2022-07-12T03:47:06;6.25;;;5.43;;
38615;SDS011;24370;51.986;4.666;2022-07-12T03:49:31;6.40;;;5.75;;
38615;SDS011;24370;51.986;4.666;2022-07-12T03:51:57;6.30;;;5.53;;
38615;SDS011;24370;51.986;4.666;2022-07-12T03:54:22;7.15;;;5.60;;
38615;SDS011;24370;51.986;4.666;2022-07-12T03:56:48;6.05;;;5.53;;
38615;SDS011;24370;51.986;4.666;2022-07-12T03:59:32;8.27;;;5.82;;
38615;SDS011;24370;51.986;4.666;2022-07-12T04:01:57;6.15;;;5.53;;
38615;SDS011;24370;51.986;4.666;2022-07-12T04:04:23;5.60;;;4.80;;
38615;SDS011;24370;51.986;4.666;2022-07-12T04:06:48;6.03;;;5.25;;
38615;SDS011;24370;51.986;4.666;2022-07-12T04:09:14;10.35;;;6.38;;
38615;SDS011;24370;51.986;4.666;2022-07-12T04:11:39;6.28;;;5.68;;
38615;SDS011;24370;51.986;4.666;2022-07-12T04:14:05;7.93;;;6.20;;
38615;SDS011;24370;51.986;4.666;2022-07-12T04:16:30;8.45;;;5.85;;
38615;SDS011;24370;51.986;4.666;2022-07-12T04:18:56;8.07;;;6.00;;
38615;SDS011;24370;51.986;4.666;2022-07-12T04:21:22;7.68;;;6.88;;
38615;SDS011;24370;51.986;4.666;2022-07-12T04:23:47;7.43;;;5.78;;
38615;SDS011;24370;51.986;4.666;2022-07-12T04:26:13;7.05;;;5.78;;
38615;SDS011;24370;51.986;4.666;2022-07-12T04:28:38;8.50;;;7.00;;
38615;SDS011;24370;51.986;4.666;2022-07-12T04:31:04;7.57;;;5.80;;
38615;SDS011;24370;51.986;4.666;2022-07-12T04:33:31;7.93;;;6.60;;
38615;SDS011;24370;51.986;4.666;2022-07-12T04:35:57;10.10;;;6.28;;
38615;SDS011;24370;51.986;4.666;2022-07-12T04:38:22;7.00;;;6.30;;
38615;SDS011;24370;51.986;4.666;2022-07-12T04:40:48;7.68;;;6.88;;
38615;SDS011;24370;51.986;4.666;2022-07-12T04:43:13;6.00;;;5.30;;
38615;SDS011;24370;51.986;4.666;2022-07-12T04:45:38;9.10;;;6.65;;
38615;SDS011;24370;51.986;4.666;2022-07-12T04:48:04;7.63;;;6.88;;
38615;SDS011;24370;51.986;4.666;2022-07-12T04:50:29;8.43;;;7.53;;
38615;SDS011;24370;51.986;4.666;2022-07-12T04:52:55;7.97;;;6.75;;
38615;SDS011;24370;51.986;4.666;2022-07-12T04:55:20;7.57;;;6.82;;
38615;SDS011;24370;51.986;4.666;2022-07-12T04:57:45;6.65;;;5.90;;
38615;SDS011;24370;51.986;4.666;2022-07-12T05:00:11;6.95;;;5.85;;
38615;SDS011;24370;51.986;4.666;2022-07-12T05:02:36;8.88;;;5.97;;
38615;SDS011;24370;51.986;4.666;2022-07-12T05:05:02;8.55;;;5.40;;
38615;SDS011;24370;51.986;4.666;2022-07-12T05:07:28;8.18;;;5.65;;
38615;SDS011;24370;51.986;4.666;2022-07-12T05:09:54;9.23;;;5.85;;
38615;SDS011;24370;51.986;4.666;2022-07-12T05:12:19;6.32;;;5.68;;
38615;SDS011;24370;51.986;4.666;2022-07-12T05:14:45;8.90;;;6.45;;
38615;SDS011;24370;51.986;4.666;2022-07-12T05:17:10;8.73;;;7.30;;
38615;SDS011;24370;51.986;4.666;2022-07-12T05:19:39;7.00;;;6.40;;
38615;SDS011;24370;51.986;4.666;2022-07-12T05:22:05;8.93;;;7.38;;
38615;SDS011;24370;51.986;4.666;2022-07-12T05:24:30;9.13;;;7.20;;
38615;SDS011;24370;51.986;4.666;2022-07-12T05:26:56;8.15;;;7.28;;
38615;SDS011;24370;51.986;4.666;2022-07-12T05:29:22;8.75;;;7.85;;
38615;SDS011;24370;51.986;4.666;2022-07-12T05:31:47;8.75;;;7.85;;
38615;SDS011;24370;51.986;4.666;2022-07-12T05:34:13;8.40;;;7.47;;
38615;SDS011;24370;51.986;4.666;2022-07-12T05:36:39;10.40;;;8.45;;
38615;SDS011;24370;51.986;4.666;2022-07-12T05:39:04;9.63;;;8.45;;
38615;SDS011;24370;51.986;4.666;2022-07-12T05:41:30;8.95;;;8.02;;
38615;SDS011;24370;51.986;4.666;2022-07-12T05:43:55;9.18;;;8.25;;
38615;SDS011;24370;51.986;4.666;2022-07-12T05:46:21;12.52;;;9.15;;
38615;SDS011;24370;51.986;4.666;2022-07-12T05:48:46;8.95;;;8.05;;
38615;SDS011;24370;51.986;4.666;2022-07-12T05:51:12;9.57;;;8.57;;
38615;SDS011;24370;51.986;4.666;2022-07-12T05:53:55;10.18;;;8.55;;
38615;SDS011;24370;51.986;4.666;2022-07-12T05:56:21;9.60;;;8.70;;
38615;SDS011;24370;51.986;4.666;2022-07-12T05:58:46;11.48;;;8.95;;
38615;SDS011;24370;51.986;4.666;2022-07-12T06:01:12;10.70;;;8.25;;
38615;SDS011;24370;51.986;4.666;2022-07-12T06:03:37;10.88;;;9.38;;
38615;SDS011;24370;51.986;4.666;2022-07-12T06:06:02;10.00;;;8.07;;
38615;SDS011;24370;51.986;4.666;2022-07-12T06:08:28;9.77;;;8.70;;
38615;SDS011;24370;51.986;4.666;2022-07-12T06:10:53;11.20;;;8.25;;
38615;SDS011;24370;51.986;4.666;2022-07-12T06:13:19;9.60;;;8.38;;
38615;SDS011;24370;51.986;4.666;2022-07-12T06:15:44;12.82;;;9.13;;
38615;SDS011;24370;51.986;4.666;2022-07-12T06:18:10;9.35;;;7.88;;
38615;SDS011;24370;51.986;4.666;2022-07-12T06:20:35;14.07;;;9.52;;
38615;SDS011;24370;51.986;4.666;2022-07-12T06:23:00;10.15;;;7.85;;
38615;SDS011;24370;51.986;4.666;2022-07-12T06:25:26;12.38;;;8.38;;
38615;SDS011;24370;51.986;4.666;2022-07-12T06:27:51;10.90;;;8.63;;
38615;SDS011;24370;51.986;4.666;2022-07-12T06:30:17;8.88;;;7.97;;
38615;SDS011;24370;51.986;4.666;2022-07-12T06:32:44;10.80;;;8.55;;
38615;SDS011;24370;51.986;4.666;2022-07-12T06:35:10;10.80;;;8.48;;
38615;SDS011;24370;51.986;4.666;2022-07-12T06:37:36;15.93;;;8.75;;
38615;SDS011;24370;51.986;4.666;2022-07-12T06:40:01;11.82;;;8.05;;
38615;SDS011;24370;51.986;4.666;2022-07-12T06:42:26;9.07;;;8.13;;
38615;SDS011;24370;51.986;4.666;2022-07-12T06:44:51;9.85;;;7.65;;
38615;SDS011;24370;51.986;4.666;2022-07-12T06:47:17;10.52;;;7.55;;
38615;SDS011;24370;51.986;4.666;2022-07-12T06:49:42;9.05;;;8.05;;
38615;SDS011;24370;51.986;4.666;2022-07-12T06:52:08;10.45;;;7.68;;
38615;SDS011;24370;51.986;4.666;2022-07-12T06:54:33;11.25;;;8.18;;
38615;SDS011;24370;51.986;4.666;2022-07-12T06:56:58;8.65;;;7.53;;
38615;SDS011;24370;51.986;4.666;2022-07-12T06:59:24;11.52;;;7.70;;
38615;SDS011;24370;51.986;4.666;2022-07-12T07:01:49;10.13;;;7.10;;
38615;SDS011;24370;51.986;4.666;2022-07-12T07:04:15;8.25;;;7.40;;
38615;SDS011;24370;51.986;4.666;2022-07-12T07:06:40;8.85;;;7.20;;
38615;SDS011;24370;51.986;4.666;2022-07-12T07:09:06;10.27;;;7.65;;
38615;SDS011;24370;51.986;4.666;2022-07-12T07:11:34;9.38;;;7.53;;
38615;SDS011;24370;51.986;4.666;2022-07-12T07:14:01;8.10;;;7.10;;
38615;SDS011;24370;51.986;4.666;2022-07-12T07:16:27;11.05;;;8.07;;
38615;SDS011;24370;51.986;4.666;2022-07-12T07:18:53;9.60;;;8.35;;
38615;SDS011;24370;51.986;4.666;2022-07-12T07:21:18;9.63;;;8.63;;
38615;SDS011;24370;51.986;4.666;2022-07-12T07:23:43;12.43;;;8.35;;
38615;SDS011;24370;51.986;4.666;2022-07-12T07:26:08;9.23;;;8.23;;
38615;SDS011;24370;51.986;4.666;2022-07-12T07:28:34;8.70;;;7.43;;
38615;SDS011;24370;51.986;4.666;2022-07-12T07:31:19;8.70;;;7.80;;
38615;SDS011;24370;51.986;4.666;2022-07-12T07:33:44;10.05;;;8.27;;
38615;SDS011;24370;51.986;4.666;2022-07-12T07:36:11;9.55;;;7.72;;
38615;SDS011;24370;51.986;4.666;2022-07-12T07:38:36;7.07;;;6.38;;
38615;SDS011;24370;51.986;4.666;2022-07-12T07:41:02;7.88;;;6.38;;
38615;SDS011;24370;51.986;4.666;2022-07-12T07:43:27;9.35;;;6.00;;
38615;SDS011;24370;51.986;4.666;2022-07-12T07:45:52;8.32;;;6.20;;
38615;SDS011;24370;51.986;4.666;2022-07-12T07:48:18;8.35;;;6.10;;
38615;SDS011;24370;51.986;4.666;2022-07-12T07:50:44;7.22;;;5.75;;
38615;SDS011;24370;51.986;4.666;2022-07-12T07:53:09;8.60;;;5.65;;
38615;SDS011;24370;51.986;4.666;2022-07-12T07:55:34;7.82;;;4.70;;
38615;SDS011;24370;51.986;4.666;2022-07-12T07:58:00;7.45;;;5.20;;
38615;SDS011;24370;51.986;4.666;2022-07-12T08:00:26;6.47;;;5.55;;
38615;SDS011;24370;51.986;4.666;2022-07-12T08:02:51;6.78;;;4.55;;
38615;SDS011;24370;51.986;4.666;2022-07-12T08:05:17;8.23;;;4.40;;
38615;SDS011;24370;51.986;4.666;2022-07-12T08:07:42;4.53;;;3.90;;
38615;SDS011;24370;51.986;4.666;2022-07-12T08:10:07;5.18;;;3.80;;
38615;SDS011;24370;51.986;4.666;2022-07-12T08:12:33;4.07;;;3.42;;
38615;SDS011;24370;51.986;4.666;2022-07-12T08:14:59;3.33;;;3.00;;
38615;SDS011;24370;51.986;4.666;2022-07-12T08:17:24;3.15;;;2.88;;
38615;SDS011;24370;51.986;4.666;2022-07-12T08:19:50;4.45;;;3.20;;
38615;SDS011;24370;51.986;4.666;2022-07-12T08:22:15;3.63;;;3.30;;
38615;SDS011;24370;51.986;4.666;2022-07-12T08:24:40;2.70;;;2.50;;
38615;SDS011;24370;51.986;4.666;2022-07-12T08:27:06;3.60;;;2.38;;
38615;SDS011;24370;51.986;4.666;2022-07-12T08:29:31;4.55;;;3.15;;
38615;SDS011;24370;51.986;4.666;2022-07-12T08:31:56;3.35;;;2.63;;
38615;SDS011;24370;51.986;4.666;2022-07-12T08:34:22;2.85;;;2.58;;
38615;SDS011;24370;51.986;4.666;2022-07-12T08:36:47;3.13;;;2.67;;
38615;SDS011;24370;51.986;4.666;2022-07-12T08:39:12;2.83;;;2.63;;
38615;SDS011;24370;51.986;4.666;2022-07-12T08:41:38;3.85;;;2.13;;
38615;SDS011;24370;51.986;4.666;2022-07-12T08:44:03;3.70;;;2.95;;
38615;SDS011;24370;51.986;4.666;2022-07-12T08:46:29;6.43;;;2.95;;
38615;SDS011;24370;51.986;4.666;2022-07-12T08:48:54;4.53;;;2.30;;
38615;SDS011;24370;51.986;4.666;2022-07-12T08:51:20;5.03;;;2.58;;
38615;SDS011;24370;51.986;4.666;2022-07-12T08:53:46;5.78;;;3.03;;
38615;SDS011;24370;51.986;4.666;2022-07-12T08:59:18;5.50;;;3.20;;
38615;SDS011;24370;51.986;4.666;2022-07-12T09:01:46;3.92;;;3.15;;
38615;SDS011;24370;51.986;4.666;2022-07-12T09:04:16;4.95;;;3.63;;
38615;SDS011;24370;51.986;4.666;2022-07-12T09:06:43;5.85;;;3.90;;
38615;SDS011;24370;51.986;4.666;2022-07-12T09:09:08;5.80;;;4.03;;
38615;SDS011;24370;51.986;4.666;2022-07-12T09:11:38;3.97;;;3.25;;
38615;SDS011;24370;51.986;4.666;2022-07-12T09:14:04;3.47;;;3.15;;
38615;SDS011;24370;51.986;4.666;2022-07-12T09:16:30;6.53;;;3.30;;
38615;SDS011;24370;51.986;4.666;2022-07-12T09:19:15;5.75;;;3.78;;
38615;SDS011;24370;51.986;4.666;2022-07-12T09:21:52;5.35;;;3.35;;
38615;SDS011;24370;51.986;4.666;2022-07-12T09:24:19;4.63;;;3.72;;
38615;SDS011;24370;51.986;4.666;2022-07-12T09:26:48;7.47;;;4.35;;
38615;SDS011;24370;51.986;4.666;2022-07-12T09:29:18;4.97;;;4.28;;
38615;SDS011;24370;51.986;4.666;2022-07-12T09:31:47;5.88;;;4.13;;
38615;SDS011;24370;51.986;4.666;2022-07-12T09:34:32;5.30;;;3.58;;
38615;SDS011;24370;51.986;4.666;2022-07-12T09:37:16;3.78;;;3.35;;
38615;SDS011;24370;51.986;4.666;2022-07-12T09:39:41;3.65;;;3.20;;
38615;SDS011;24370;51.986;4.666;2022-07-12T09:42:08;7.20;;;4.00;;
38615;SDS011;24370;51.986;4.666;2022-07-12T09:44:35;5.32;;;3.80;;
38615;SDS011;24370;51.986;4.666;2022-07-12T09:47:01;7.90;;;3.90;;
38615;SDS011;24370;51.986;4.666;2022-07-12T09:49:27;8.70;;;4.50;;
38615;SDS011;24370;51.986;4.666;2022-07-12T09:51:56;4.80;;;3.78;;
38615;SDS011;24370;51.986;4.666;2022-07-12T09:54:26;4.75;;;4.22;;
38615;SDS011;24370;51.986;4.666;2022-07-12T09:56:53;4.38;;;3.97;;
38615;SDS011;24370;51.986;4.666;2022-07-12T09:59:20;4.75;;;4.03;;
38615;SDS011;24370;51.986;4.666;2022-07-12T10:01:49;6.20;;;3.20;;
38615;SDS011;24370;51.986;4.666;2022-07-12T10:04:15;3.22;;;2.83;;
38615;SDS011;24370;51.986;4.666;2022-07-12T10:06:46;3.33;;;2.80;;
38615;SDS011;24370;51.986;4.666;2022-07-12T10:09:12;3.53;;;3.08;;
38615;SDS011;24370;51.986;4.666;2022-07-12T10:11:39;3.00;;;2.70;;
38615;SDS011;24370;51.986;4.666;2022-07-12T10:14:05;5.55;;;2.80;;
38615;SDS011;24370;51.986;4.666;2022-07-12T10:16:33;3.55;;;2.30;;
38615;SDS011;24370;51.986;4.666;2022-07-12T10:21:48;3.80;;;3.30;;
38615;SDS011;24370;51.986;4.666;2022-07-12T10:29:24;3.65;;;3.35;;
38615;SDS011;24370;51.986;4.666;2022-07-12T10:31:51;3.78;;;2.90;;
38615;SDS011;24370;51.986;4.666;2022-07-12T10:34:21;5.15;;;3.35;;
38615;SDS011;24370;51.986;4.666;2022-07-12T10:44:37;4.22;;;3.83;;
38615;SDS011;24370;51.986;4.666;2022-07-12T10:47:04;6.40;;;4.13;;
38615;SDS011;24370;51.986;4.666;2022-07-12T10:49:32;5.90;;;4.18;;
38615;SDS011;24370;51.986;4.666;2022-07-12T10:54:36;7.38;;;3.63;;
38615;SDS011;24370;51.986;4.666;2022-07-12T10:57:15;3.92;;;3.53;;
38615;SDS011;24370;51.986;4.666;2022-07-12T10:59:41;4.78;;;3.30;;
38615;SDS011;24370;51.986;4.666;2022-07-12T11:02:10;3.88;;;2.90;;
38615;SDS011;24370;51.986;4.666;2022-07-12T11:04:36;3.78;;;3.38;;
38615;SDS011;24370;51.986;4.666;2022-07-12T11:07:11;4.25;;;3.83;;
38615;SDS011;24370;51.986;4.666;2022-07-12T11:09:42;4.95;;;3.58;;
38615;SDS011;24370;51.986;4.666;2022-07-12T11:12:07;5.10;;;3.90;;
38615;SDS011;24370;51.986;4.666;2022-07-12T11:14:32;5.07;;;3.70;;
38615;SDS011;24370;51.986;4.666;2022-07-12T11:16:59;3.40;;;3.10;;
38615;SDS011;24370;51.986;4.666;2022-07-12T11:19:26;4.32;;;3.58;;
38615;SDS011;24370;51.986;4.666;2022-07-12T11:21:53;5.43;;;3.58;;
38615;SDS011;24370;51.986;4.666;2022-07-12T11:24:23;3.40;;;3.10;;
38615;SDS011;24370;51.986;4.666;2022-07-12T11:26:50;4.45;;;3.60;;
38615;SDS011;24370;51.986;4.666;2022-07-12T11:29:17;4.10;;;3.40;;
38615;SDS011;24370;51.986;4.666;2022-07-12T11:31:43;5.70;;;3.45;;
38615;SDS011;24370;51.986;4.666;2022-07-12T11:34:22;5.53;;;4.07;;
38615;SDS011;24370;51.986;4.666;2022-07-12T11:36:55;3.95;;;3.22;;
38615;SDS011;24370;51.986;4.666;2022-07-12T11:42:00;6.47;;;3.42;;
38615;SDS011;24370;51.986;4.666;2022-07-12T11:44:44;2.97;;;2.78;;
38615;SDS011;24370;51.986;4.666;2022-07-12T11:47:10;4.20;;;2.85;;
38615;SDS011;24370;51.986;4.666;2022-07-12T11:49:36;3.13;;;2.65;;
38615;SDS011;24370;51.986;4.666;2022-07-12T11:52:04;4.78;;;2.92;;
38615;SDS011;24370;51.986;4.666;2022-07-12T11:54:30;2.53;;;2.33;;
38615;SDS011;24370;51.986;4.666;2022-07-12T11:57:08;3.00;;;2.58;;
38615;SDS011;24370;51.986;4.666;2022-07-12T11:59:35;5.68;;;2.50;;
38615;SDS011;24370;51.986;4.666;2022-07-12T12:02:04;2.72;;;2.03;;
38615;SDS011;24370;51.986;4.666;2022-07-12T12:04:32;2.90;;;2.30;;
38615;SDS011;24370;51.986;4.666;2022-07-12T12:07:08;12.70;;;2.30;;
38615;SDS011;24370;51.986;4.666;2022-07-12T12:09:56;2.40;;;2.20;;
38615;SDS011;24370;51.986;4.666;2022-07-12T12:15:12;2.65;;;2.45;;
38615;SDS011;24370;51.986;4.666;2022-07-12T12:17:43;2.70;;;2.50;;
38615;SDS011;24370;51.986;4.666;2022-07-12T12:22:51;4.82;;;2.47;;
38615;SDS011;24370;51.986;4.666;2022-07-12T12:25:18;3.35;;;2.72;;
38615;SDS011;24370;51.986;4.666;2022-07-12T12:27:45;3.72;;;2.63;;
38615;SDS011;24370;51.986;4.666;2022-07-12T12:30:12;2.97;;;2.58;;
38615;SDS011;24370;51.986;4.666;2022-07-12T12:32:42;3.03;;;2.70;;
38615;SDS011;24370;51.986;4.666;2022-07-12T12:35:21;3.53;;;3.13;;
38615;SDS011;24370;51.986;4.666;2022-07-12T12:37:58;3.58;;;3.08;;
38615;SDS011;24370;51.986;4.666;2022-07-12T12:40:29;3.30;;;2.35;;
38615;SDS011;24370;51.986;4.666;2022-07-12T12:43:07;4.13;;;3.20;;
38615;SDS011;24370;51.986;4.666;2022-07-12T12:45:34;6.00;;;2.20;;
38615;SDS011;24370;51.986;4.666;2022-07-12T12:48:04;2.33;;;1.90;;
38615;SDS011;24370;51.986;4.666;2022-07-12T12:50:36;3.15;;;2.33;;
38615;SDS011;24370;51.986;4.666;2022-07-12T12:53:15;4.57;;;2.15;;
38615;SDS011;24370;51.986;4.666;2022-07-12T12:55:43;4.55;;;2.30;;
38615;SDS011;24370;51.986;4.666;2022-07-12T12:58:10;2.92;;;2.17;;
38615;SDS011;24370;51.986;4.666;2022-07-12T13:00:43;2.95;;;2.38;;
38615;SDS011;24370;51.986;4.666;2022-07-12T13:03:10;3.05;;;2.75;;
38615;SDS011;24370;51.986;4.666;2022-07-12T13:05:37;3.10;;;2.63;;
38615;SDS011;24370;51.986;4.666;2022-07-12T13:08:03;4.70;;;2.83;;
38615;SDS011;24370;51.986;4.666;2022-07-12T13:10:30;3.30;;;3.00;;
38615;SDS011;24370;51.986;4.666;2022-07-12T13:12:56;5.18;;;2.67;;
38615;SDS011;24370;51.986;4.666;2022-07-12T13:15:22;2.70;;;2.42;;
38615;SDS011;24370;51.986;4.666;2022-07-12T13:17:47;4.50;;;2.50;;
38615;SDS011;24370;51.986;4.666;2022-07-12T13:20:13;3.72;;;2.42;;
38615;SDS011;24370;51.986;4.666;2022-07-12T13:22:40;3.25;;;2.65;;
38615;SDS011;24370;51.986;4.666;2022-07-12T13:25:06;4.32;;;3.65;;
38615;SDS011;24370;51.986;4.666;2022-07-12T13:27:33;4.05;;;3.28;;
38615;SDS011;24370;51.986;4.666;2022-07-12T13:29:58;5.35;;;2.47;;
38615;SDS011;24370;51.986;4.666;2022-07-12T13:32:24;3.08;;;2.53;;
38615;SDS011;24370;51.986;4.666;2022-07-12T13:34:50;2.40;;;2.20;;
38615;SDS011;24370;51.986;4.666;2022-07-12T13:37:15;3.38;;;2.00;;
38615;SDS011;24370;51.986;4.666;2022-07-12T13:39:41;1.85;;;1.73;;
38615;SDS011;24370;51.986;4.666;2022-07-12T13:42:25;1.92;;;1.70;;
38615;SDS011;24370;51.986;4.666;2022-07-12T13:44:53;1.40;;;1.30;;
38615;SDS011;24370;51.986;4.666;2022-07-12T13:47:19;1.52;;;1.40;;
38615;SDS011;24370;51.986;4.666;2022-07-12T13:49:46;2.58;;;1.55;;
38615;SDS011;24370;51.986;4.666;2022-07-12T13:52:12;2.17;;;1.88;;
38615;SDS011;24370;51.986;4.666;2022-07-12T13:54:37;1.60;;;1.40;;
38615;SDS011;24370;51.986;4.666;2022-07-12T13:57:03;2.08;;;1.60;;
38615;SDS011;24370;51.986;4.666;2022-07-12T13:59:29;6.00;;;1.80;;
38615;SDS011;24370;51.986;4.666;2022-07-12T14:01:54;3.10;;;1.83;;
38615;SDS011;24370;51.986;4.666;2022-07-12T14:04:20;1.67;;;1.42;;
38615;SDS011;24370;51.986;4.666;2022-07-12T14:06:46;2.75;;;1.50;;
38615;SDS011;24370;51.986;4.666;2022-07-12T14:09:13;1.63;;;1.35;;
38615;SDS011;24370;51.986;4.666;2022-07-12T14:11:39;2.30;;;1.60;;
38615;SDS011;24370;51.986;4.666;2022-07-12T14:14:04;2.53;;;1.40;;
38615;SDS011;24370;51.986;4.666;2022-07-12T14:16:29;2.08;;;1.38;;
38615;SDS011;24370;51.986;4.666;2022-07-12T14:18:55;1.42;;;1.33;;
38615;SDS011;24370;51.986;4.666;2022-07-12T14:21:20;1.80;;;1.10;;
38615;SDS011;24370;51.986;4.666;2022-07-12T14:23:46;1.48;;;1.30;;
38615;SDS011;24370;51.986;4.666;2022-07-12T14:26:11;2.00;;;1.55;;
38615;SDS011;24370;51.986;4.666;2022-07-12T14:28:36;1.55;;;1.45;;
38615;SDS011;24370;51.986;4.666;2022-07-12T14:31:03;1.40;;;1.30;;
38615;SDS011;24370;51.986;4.666;2022-07-12T14:33:29;1.50;;;1.40;;
38615;SDS011;24370;51.986;4.666;2022-07-12T14:35:55;2.58;;;1.40;;
38615;SDS011;24370;51.986;4.666;2022-07-12T14:38:20;2.13;;;1.75;;
38615;SDS011;24370;51.986;4.666;2022-07-12T14:40:46;1.83;;;1.50;;
38615;SDS011;24370;51.986;4.666;2022-07-12T14:43:11;1.63;;;1.33;;
38615;SDS011;24370;51.986;4.666;2022-07-12T14:45:37;3.42;;;1.73;;
38615;SDS011;24370;51.986;4.666;2022-07-12T14:48:02;1.42;;;1.27;;
38615;SDS011;24370;51.986;4.666;2022-07-12T14:50:28;2.95;;;1.50;;
38615;SDS011;24370;51.986;4.666;2022-07-12T14:52:53;3.25;;;1.70;;
38615;SDS011;24370;51.986;4.666;2022-07-12T14:55:19;1.80;;;1.70;;
38615;SDS011;24370;51.986;4.666;2022-07-12T14:57:44;1.50;;;1.40;;
38615;SDS011;24370;51.986;4.666;2022-07-12T15:00:09;1.67;;;1.58;;
38615;SDS011;24370;51.986;4.666;2022-07-12T15:02:36;4.43;;;1.63;;
38615;SDS011;24370;51.986;4.666;2022-07-12T15:05:02;3.55;;;1.45;;
38615;SDS011;24370;51.986;4.666;2022-07-12T15:07:31;1.80;;;1.20;;
38615;SDS011;24370;51.986;4.666;2022-07-12T15:09:56;2.13;;;1.58;;
38615;SDS011;24370;51.986;4.666;2022-07-12T15:12:23;3.45;;;1.30;;